Time;durP1;ratioP1;P1;durP2;ratioP2;P2;SDS_P1;SDS_P2;PMS_P1;PMS_P2;Temp;Humidity;BMP_temperature;BMP_pressure;BME280_temperature;BME280_humidity;BME280_pressure;Samples;Min_cycle;Max_cycle;Signal;HPM_P1;HPM_P2
2023/07/05 00:01:24;;;;;;;;;;;16.40;99.90;;;;;;5112735;28;19912;-44
2023/07/05 00:03:49;;;;;;;;;;;16.30;99.90;;;;;;5113293;28;20282;-42
2023/07/05 00:06:15;;;;;;;;;;;16.30;99.90;;;;;;5113341;28;19916;-42
2023/07/05 00:08:40;;;;;;;;;;;16.30;99.90;;;;;;5112473;28;19908;-43
2023/07/05 00:11:07;;;;;;;;;;;16.20;99.90;;;;;;5113279;28;19908;-42
2023/07/05 00:13:33;;;;;;;;;;;16.20;99.90;;;;;;5112919;28;20002;-43
2023/07/05 00:15:59;;;;;;;;;;;16.30;99.90;;;;;;5112492;28;20003;-42
2023/07/05 00:18:25;;;;;;;;;;;16.20;99.90;;;;;;5113309;28;20002;-47
2023/07/05 00:20:50;;;;;;;;;;;16.20;99.90;;;;;;5112361;28;20354;-42
2023/07/05 00:23:16;;;;;;;;;;;16.20;99.90;;;;;;5113100;28;19918;-42
2023/07/05 00:25:41;;;;;;;;;;;16.10;99.90;;;;;;5113124;28;19930;-43
2023/07/05 00:28:07;;;;;;;;;;;16.20;99.90;;;;;;5112370;28;19955;-43
2023/07/05 00:30:32;;;;;;;;;;;16.20;99.90;;;;;;5113189;28;19990;-43
2023/07/05 00:32:58;;;;;;;;;;;16.20;99.90;;;;;;5113026;28;19908;-44
2023/07/05 00:35:23;;;;;;;;;;;16.20;99.90;;;;;;5112372;28;19915;-43
2023/07/05 00:37:49;;;;;;;;;;;16.20;99.90;;;;;;5113030;28;19939;-43
2023/07/05 00:40:14;;;;;;;;;;;16.10;99.90;;;;;;5112736;28;20160;-43
2023/07/05 00:42:40;;;;;;;;;;;16.10;99.90;;;;;;5113867;28;20396;-43
2023/07/05 00:45:08;;;;;;;;;;;16.10;99.90;;;;;;5117090;28;19983;-43
2023/07/05 00:47:34;;;;;;;;;;;16.10;99.90;;;;;;5117131;28;20377;-43
2023/07/05 00:50:03;;;;;;;;;;;16.10;99.90;;;;;;5116299;28;19908;-43
2023/07/05 00:52:29;;;;;;;;;;;16.10;99.90;;;;;;5117001;28;19985;-43
2023/07/05 00:54:55;;;;;;;;;;;16.10;99.90;;;;;;5116938;28;20334;-42
2023/07/05 00:57:23;;;;;;;;;;;16.10;99.90;;;;;;5116235;28;19908;-42
2023/07/05 01:00:01;;;;;;;;;;;16.10;99.90;;;;;;5116834;28;19992;-44
2023/07/05 01:02:27;;;;;;;;;;;16.10;99.90;;;;;;5116747;28;19916;-43
2023/07/05 01:04:53;;;;;;;;;;;16.00;99.90;;;;;;5116107;28;19915;-43
2023/07/05 01:07:18;;;;;;;;;;;16.10;99.90;;;;;;5116681;28;19911;-43
2023/07/05 01:09:47;;;;;;;;;;;16.00;99.90;;;;;;5116713;28;19911;-43
2023/07/05 01:12:18;;;;;;;;;;;16.00;99.90;;;;;;5115513;28;19915;-43
2023/07/05 01:14:47;;;;;;;;;;;16.00;99.90;;;;;;5116302;28;20530;-44
2023/07/05 01:17:12;;;;;;;;;;;16.00;99.90;;;;;;5115725;28;20316;-43
2023/07/05 01:19:52;;;;;;;;;;;16.00;99.90;;;;;;5116560;28;19960;-43
2023/07/05 01:22:38;;;;;;;;;;;16.00;99.90;;;;;;5116434;28;19938;-42
2023/07/05 01:25:12;;;;;;;;;;;16.00;99.90;;;;;;5114898;28;19908;-43
2023/07/05 01:27:37;;;;;;;;;;;16.00;99.90;;;;;;5116365;28;19907;-46
2023/07/05 01:30:06;;;;;;;;;;;16.10;99.90;;;;;;5116316;28;19908;-44
2023/07/05 01:32:31;;;;;;;;;;;16.00;99.90;;;;;;5115609;28;19908;-46
2023/07/05 01:34:57;;;;;;;;;;;16.00;99.90;;;;;;5116374;28;19908;-43
2023/07/05 01:37:26;;;;;;;;;;;16.10;99.90;;;;;;5116158;28;19907;-43
2023/07/05 01:39:51;;;;;;;;;;;16.00;99.90;;;;;;5115091;28;19936;-47
2023/07/05 01:42:18;;;;;;;;;;;16.00;99.90;;;;;;5115749;28;19928;-44
2023/07/05 01:44:43;;;;;;;;;;;16.00;99.90;;;;;;5116055;28;19908;-44
2023/07/05 01:47:14;;;;;;;;;;;16.00;99.90;;;;;;5115180;28;20366;-43
2023/07/05 01:49:40;;;;;;;;;;;15.90;99.90;;;;;;5115382;28;19935;-44
2023/07/05 01:52:27;;;;;;;;;;;15.90;99.90;;;;;;5115740;28;20358;-42
2023/07/05 01:54:59;;;;;;;;;;;15.80;99.90;;;;;;5115638;28;19907;-45
2023/07/05 01:57:28;;;;;;;;;;;15.80;99.90;;;;;;5115819;28;19907;-44
2023/07/05 02:00:01;;;;;;;;;;;15.80;99.90;;;;;;5114897;28;19912;-41
2023/07/05 02:02:29;;;;;;;;;;;15.70;99.90;;;;;;5115669;28;19955;-43
2023/07/05 02:04:55;;;;;;;;;;;15.70;99.90;;;;;;5115550;28;19912;-42
2023/07/05 02:07:25;;;;;;;;;;;15.60;99.90;;;;;;5114796;28;20362;-43
2023/07/05 02:09:50;;;;;;;;;;;15.60;99.90;;;;;;5115490;28;19915;-42
2023/07/05 02:12:16;;;;;;;;;;;15.60;99.90;;;;;;5115222;28;19916;-43
2023/07/05 02:14:41;;;;;;;;;;;15.60;99.90;;;;;;5114621;28;19907;-44
2023/07/05 02:17:07;;;;;;;;;;;15.60;99.90;;;;;;5115438;28;20359;-43
2023/07/05 02:19:32;;;;;;;;;;;15.60;99.90;;;;;;5115497;28;19914;-43
2023/07/05 02:21:58;;;;;;;;;;;15.60;99.90;;;;;;5114264;28;19923;-43
2023/07/05 02:24:24;;;;;;;;;;;15.60;99.90;;;;;;5115369;28;20007;-43
2023/07/05 02:26:53;;;;;;;;;;;15.60;99.90;;;;;;5115198;28;19915;-42
2023/07/05 02:29:18;;;;;;;;;;;15.60;99.90;;;;;;5114400;28;19912;-45
2023/07/05 02:31:44;;;;;;;;;;;15.60;99.90;;;;;;5115172;28;20419;-44
2023/07/05 02:34:10;;;;;;;;;;;15.60;99.90;;;;;;5115094;28;19907;-44
2023/07/05 02:36:35;;;;;;;;;;;15.60;99.90;;;;;;5114201;28;20000;-49
2023/07/05 02:39:01;;;;;;;;;;;15.60;99.90;;;;;;5114658;28;19962;-43
2023/07/05 02:41:26;;;;;;;;;;;15.60;99.90;;;;;;5114973;28;19918;-45
2023/07/05 02:43:52;;;;;;;;;;;15.60;99.90;;;;;;5113892;28;19923;-44
2023/07/05 02:46:17;;;;;;;;;;;15.50;99.90;;;;;;5115022;28;19912;-44
2023/07/05 02:48:45;;;;;;;;;;;15.50;99.90;;;;;;5114025;28;20381;-44
2023/07/05 02:51:10;;;;;;;;;;;15.50;99.90;;;;;;5114665;28;19908;-43
2023/07/05 02:53:36;;;;;;;;;;;15.50;99.90;;;;;;5114658;28;20274;-45
2023/07/05 02:56:03;;;;;;;;;;;15.50;99.90;;;;;;5113819;28;19908;-45
2023/07/05 02:58:28;;;;;;;;;;;15.50;99.90;;;;;;5114564;28;19907;-45
2023/07/05 03:00:54;;;;;;;;;;;15.50;99.90;;;;;;5114472;28;19988;-45
2023/07/05 03:03:21;;;;;;;;;;;15.50;99.90;;;;;;5113581;28;19922;-44
2023/07/05 03:05:56;;;;;;;;;;;15.50;99.90;;;;;;5113608;28;19911;-43
2023/07/05 03:08:22;;;;;;;;;;;15.50;99.90;;;;;;5114259;28;19915;-42
2023/07/05 03:10:47;;;;;;;;;;;15.50;99.90;;;;;;5113467;28;19907;-45
2023/07/05 03:13:13;;;;;;;;;;;15.40;99.90;;;;;;5114006;28;19916;-44
2023/07/05 03:15:38;;;;;;;;;;;15.50;99.90;;;;;;5114244;28;20251;-45
2023/07/05 03:18:04;;;;;;;;;;;15.40;99.90;;;;;;5113357;28;19951;-45
2023/07/05 03:20:29;;;;;;;;;;;15.40;99.90;;;;;;5114091;28;19912;-46
2023/07/05 03:22:55;;;;;;;;;;;15.40;99.90;;;;;;5113943;28;19927;-45
2023/07/05 03:25:20;;;;;;;;;;;15.40;99.90;;;;;;5113293;28;19908;-46
2023/07/05 03:27:46;;;;;;;;;;;15.40;99.90;;;;;;5113991;28;20408;-46
2023/07/05 03:30:11;;;;;;;;;;;15.50;99.90;;;;;;5113938;28;19939;-44
2023/07/05 03:32:39;;;;;;;;;;;15.40;99.90;;;;;;5113111;28;19930;-44
2023/07/05 03:35:05;;;;;;;;;;;15.50;99.90;;;;;;5113821;28;19908;-45
2023/07/05 03:37:30;;;;;;;;;;;15.50;99.90;;;;;;5113795;28;19919;-43
2023/07/05 03:39:56;;;;;;;;;;;15.50;99.90;;;;;;5112907;28;19927;-44
2023/07/05 03:42:21;;;;;;;;;;;15.50;99.90;;;;;;5113743;28;20006;-43
2023/07/05 03:44:47;;;;;;;;;;;15.50;99.90;;;;;;5113122;28;19919;-46
2023/07/05 03:47:12;;;;;;;;;;;15.50;99.90;;;;;;5113436;28;19908;-43
2023/07/05 03:49:38;;;;;;;;;;;15.50;99.90;;;;;;5113672;28;19934;-43
2023/07/05 03:52:03;;;;;;;;;;;15.50;99.90;;;;;;5112753;28;19908;-44
2023/07/05 03:54:29;;;;;;;;;;;15.60;99.90;;;;;;5113689;28;19908;-44
2023/07/05 03:56:54;;;;;;;;;;;15.60;99.90;;;;;;5113437;28;20010;-44
2023/07/05 03:59:20;;;;;;;;;;;15.60;99.90;;;;;;5112754;28;19947;-45
2023/07/05 04:01:45;;;;;;;;;;;15.60;99.90;;;;;;5113315;28;19919;-46
2023/07/05 04:04:11;;;;;;;;;;;15.60;99.90;;;;;;5113298;28;19908;-45
2023/07/05 04:06:36;;;;;;;;;;;15.60;99.90;;;;;;5112534;28;19914;-43
2023/07/05 04:09:02;;;;;;;;;;;15.60;99.90;;;;;;5113091;28;19912;-42
2023/07/05 04:11:28;;;;;;;;;;;15.60;99.90;;;;;;5113342;28;19912;-49
2023/07/05 04:13:54;;;;;;;;;;;15.70;99.90;;;;;;5111870;28;20370;-47
2023/07/05 04:16:21;;;;;;;;;;;15.70;99.90;;;;;;5113293;28;19908;-41
2023/07/05 04:18:49;;;;;;;;;;;15.70;99.90;;;;;;5113225;28;20378;-44
2023/07/05 04:21:15;;;;;;;;;;;15.80;99.90;;;;;;5112261;28;20389;-44
2023/07/05 04:23:40;;;;;;;;;;;15.80;99.90;;;;;;5112887;28;19916;-44
2023/07/05 04:26:07;;;;;;;;;;;15.80;99.90;;;;;;5104597;28;20282;-46
2023/07/05 04:28:33;;;;;;;;;;;15.80;99.90;;;;;;5111319;28;19907;-43
2023/07/05 04:30:59;;;;;;;;;;;15.90;99.90;;;;;;5093962;28;19912;-45
2023/07/05 04:33:25;;;;;;;;;;;15.90;99.90;;;;;;5092797;28;19968;-45
2023/07/05 04:35:51;;;;;;;;;;;15.90;99.90;;;;;;5091967;28;19915;-44
2023/07/05 04:38:17;;;;;;;;;;;15.90;99.90;;;;;;5109401;28;20007;-44
2023/07/05 04:40:42;;;;;;;;;;;15.90;99.90;;;;;;5112785;28;20010;-42
2023/07/05 04:43:08;;;;;;;;;;;15.90;99.90;;;;;;5112132;28;19916;-45
2023/07/05 04:45:34;;;;;;;;;;;15.90;99.90;;;;;;5112837;28;20275;-44
2023/07/05 04:47:59;;;;;;;;;;;15.90;99.90;;;;;;5112877;28;19951;-43
2023/07/05 04:50:25;;;;;;;;;;;15.90;99.90;;;;;;5112130;28;19908;-42
2023/07/05 04:52:51;;;;;;;;;;;15.90;99.90;;;;;;5112748;28;19953;-44
2023/07/05 04:55:16;;;;;;;;;;;15.90;99.90;;;;;;5112198;28;19930;-44
2023/07/05 04:57:42;;;;;;;;;;;15.80;99.90;;;;;;5112920;28;19915;-43
2023/07/05 05:00:08;;;;;;;;;;;15.80;99.90;;;;;;5112834;28;20056;-43
2023/07/05 05:02:34;;;;;;;;;;;15.70;99.90;;;;;;5111988;28;20348;-43
2023/07/05 05:05:00;;;;;;;;;;;15.70;99.90;;;;;;5112689;28;20426;-43
2023/07/05 05:07:25;;;;;;;;;;;15.60;99.90;;;;;;5112688;28;20004;-43
2023/07/05 05:09:51;;;;;;;;;;;15.50;99.90;;;;;;5111925;28;19955;-43
2023/07/05 05:12:16;;;;;;;;;;;15.40;99.90;;;;;;5112919;28;19996;-43
2023/07/05 05:14:42;;;;;;;;;;;15.40;99.90;;;;;;5112052;28;19934;-44
2023/07/05 05:17:07;;;;;;;;;;;15.30;99.90;;;;;;5111864;28;20361;-45
2023/07/05 05:19:33;;;;;;;;;;;15.20;99.90;;;;;;5112789;28;19908;-44
2023/07/05 05:21:58;;;;;;;;;;;15.10;99.90;;;;;;5112485;28;20379;-47
2023/07/05 05:24:24;;;;;;;;;;;15.00;99.90;;;;;;5111970;28;19908;-46
2023/07/05 05:26:49;;;;;;;;;;;14.90;99.90;;;;;;5110022;28;20267;-43
2023/07/05 05:29:15;;;;;;;;;;;14.80;99.90;;;;;;5097918;28;19915;-44
2023/07/05 05:31:40;;;;;;;;;;;14.80;99.90;;;;;;5107260;28;19918;-44
2023/07/05 05:34:06;;;;;;;;;;;14.80;99.90;;;;;;5103783;28;19980;-46
2023/07/05 05:36:31;;;;;;;;;;;14.90;99.90;;;;;;5105378;28;19998;-43
2023/07/05 05:38:57;;;;;;;;;;;14.80;99.90;;;;;;5113350;28;20279;-41
2023/07/05 05:41:22;;;;;;;;;;;14.80;99.90;;;;;;5102674;28;19939;-43
2023/07/05 05:43:50;;;;;;;;;;;14.80;99.90;;;;;;5115699;28;19912;-45
2023/07/05 05:46:16;;;;;;;;;;;14.90;99.90;;;;;;5110290;28;19915;-43
2023/07/05 05:48:42;;;;;;;;;;;15.00;99.90;;;;;;5109637;28;19912;-43
2023/07/05 05:51:07;;;;;;;;;;;15.10;99.90;;;;;;5103035;28;19912;-43
2023/07/05 05:53:33;;;;;;;;;;;15.10;99.90;;;;;;5098019;28;19923;-44
2023/07/05 05:55:59;;;;;;;;;;;15.10;99.90;;;;;;5095303;28;19944;-41
2023/07/05 05:58:25;;;;;;;;;;;15.20;99.90;;;;;;5115333;28;19912;-44
2023/07/05 06:00:51;;;;;;;;;;;15.20;99.90;;;;;;5115434;28;20304;-42
2023/07/05 06:03:16;;;;;;;;;;;15.20;99.90;;;;;;5097183;28;20446;-41
2023/07/05 06:05:42;;;;;;;;;;;15.20;99.90;;;;;;5103368;28;20010;-45
2023/07/05 06:08:08;;;;;;;;;;;15.30;99.90;;;;;;5111774;28;19923;-46
2023/07/05 06:10:33;;;;;;;;;;;15.30;99.90;;;;;;5101231;28;19915;-42
2023/07/05 06:12:59;;;;;;;;;;;15.30;99.90;;;;;;5108413;28;20006;-44
2023/07/05 06:15:25;;;;;;;;;;;15.30;99.90;;;;;;5102674;28;19912;-44
2023/07/05 06:17:50;;;;;;;;;;;15.30;99.90;;;;;;5115062;28;19912;-44
2023/07/05 06:20:16;;;;;;;;;;;15.30;99.90;;;;;;5114145;28;19919;-45
2023/07/05 06:22:42;;;;;;;;;;;15.30;99.90;;;;;;5115146;28;19919;-44
2023/07/05 06:25:10;;;;;;;;;;;15.20;99.90;;;;;;5114895;28;20151;-44
2023/07/05 06:27:35;;;;;;;;;;;15.20;99.90;;;;;;5114446;28;19908;-43
2023/07/05 06:30:01;;;;;;;;;;;15.20;99.90;;;;;;5109447;28;20049;-43
2023/07/05 06:32:26;;;;;;;;;;;15.30;99.90;;;;;;5105898;28;20044;-46
2023/07/05 06:34:52;;;;;;;;;;;15.40;99.90;;;;;;5093990;28;20287;-45
2023/07/05 06:37:17;;;;;;;;;;;15.40;99.90;;;;;;5096618;28;20271;-42
2023/07/05 06:39:43;;;;;;;;;;;15.50;99.90;;;;;;5108349;28;19926;-43
2023/07/05 06:42:08;;;;;;;;;;;15.50;99.90;;;;;;5111186;28;20391;-45
2023/07/05 06:44:34;;;;;;;;;;;15.50;99.90;;;;;;5097774;28;20015;-45
2023/07/05 06:46:59;;;;;;;;;;;15.50;99.90;;;;;;5094403;28;19908;-45
2023/07/05 06:49:25;;;;;;;;;;;15.50;99.90;;;;;;5088419;28;19912;-44
2023/07/05 06:51:50;;;;;;;;;;;15.60;99.90;;;;;;5094256;28;19915;-43
2023/07/05 06:54:16;;;;;;;;;;;15.70;99.90;;;;;;5094270;28;20420;-46
2023/07/05 06:56:41;;;;;;;;;;;15.80;99.90;;;;;;5093562;28;19908;-45
2023/07/05 06:59:07;;;;;;;;;;;15.80;99.90;;;;;;5094450;28;19912;-42
2023/07/05 07:01:32;;;;;;;;;;;15.90;99.90;;;;;;5094215;28;20392;-44
2023/07/05 07:03:58;;;;;;;;;;;16.00;99.90;;;;;;5092552;28;20418;-43
2023/07/05 07:06:24;;;;;;;;;;;16.20;99.90;;;;;;5110795;28;19916;-44
2023/07/05 07:08:49;;;;;;;;;;;16.40;99.90;;;;;;5108177;28;19947;-44
2023/07/05 07:11:15;;;;;;;;;;;16.50;99.90;;;;;;5093592;28;19912;-41
2023/07/05 07:13:41;;;;;;;;;;;16.50;99.90;;;;;;5100183;28;20014;-42
2023/07/05 07:16:08;;;;;;;;;;;16.50;99.90;;;;;;5109032;28;19924;-43
2023/07/05 07:18:36;;;;;;;;;;;16.30;99.90;;;;;;5104992;28;20330;-43
2023/07/05 07:21:02;;;;;;;;;;;16.20;99.90;;;;;;5114057;28;19908;-44
2023/07/05 07:23:28;;;;;;;;;;;16.10;99.90;;;;;;5113492;28;19916;-44
2023/07/05 07:26:00;;;;;;;;;;;16.20;99.90;;;;;;5106283;28;19918;-42
2023/07/05 07:28:25;;;;;;;;;;;16.30;99.90;;;;;;5093164;28;20334;-44
2023/07/05 07:30:51;;;;;;;;;;;16.40;99.90;;;;;;5104683;28;20021;-43
2023/07/05 07:33:17;;;;;;;;;;;16.30;99.90;;;;;;5105735;28;20411;-44
2023/07/05 07:35:42;;;;;;;;;;;16.10;99.90;;;;;;5103671;28;19914;-44
2023/07/05 07:38:08;;;;;;;;;;;16.10;99.90;;;;;;5101500;28;20390;-43
2023/07/05 07:40:36;;;;;;;;;;;16.00;99.90;;;;;;5105444;28;19952;-45
2023/07/05 07:43:05;;;;;;;;;;;15.90;99.90;;;;;;5091849;28;19923;-43
2023/07/05 07:45:30;;;;;;;;;;;15.80;99.90;;;;;;5101443;28;19957;-44
2023/07/05 07:47:56;;;;;;;;;;;15.70;99.90;;;;;;5103392;28;20034;-41
2023/07/05 07:50:22;;;;;;;;;;;15.70;99.90;;;;;;5093136;28;19951;-42
2023/07/05 07:52:48;;;;;;;;;;;15.60;99.90;;;;;;5092353;28;19908;-42
2023/07/05 07:55:13;;;;;;;;;;;15.50;99.90;;;;;;5096287;28;19969;-42
2023/07/05 07:57:39;;;;;;;;;;;15.20;99.90;;;;;;5103455;28;19916;-47
2023/07/05 08:00:08;;;;;;;;;;;14.90;99.90;;;;;;5107820;28;19907;-41
2023/07/05 08:02:34;;;;;;;;;;;14.60;99.90;;;;;;5103804;28;19920;-43
2023/07/05 08:04:59;;;;;;;;;;;14.40;99.90;;;;;;5112324;28;19964;-46
2023/07/05 08:07:24;;;;;;;;;;;14.20;99.90;;;;;;5112534;28;19911;-42
2023/07/05 08:09:53;;;;;;;;;;;14.10;99.90;;;;;;5112944;28;19918;-43
2023/07/05 08:12:19;;;;;;;;;;;14.00;99.90;;;;;;5111905;28;19912;-43
2023/07/05 08:14:44;;;;;;;;;;;13.90;99.90;;;;;;5113220;28;19911;-42
2023/07/05 08:17:10;;;;;;;;;;;13.90;99.90;;;;;;5113038;28;19908;-43
2023/07/05 08:19:35;;;;;;;;;;;13.80;99.90;;;;;;5112039;28;20018;-44
2023/07/05 08:22:02;;;;;;;;;;;13.80;99.90;;;;;;5112497;28;20294;-42
2023/07/05 08:24:28;;;;;;;;;;;13.70;99.90;;;;;;5113065;28;20010;-42
2023/07/05 08:26:54;;;;;;;;;;;13.70;99.90;;;;;;5112324;28;19930;-42
2023/07/05 08:29:20;;;;;;;;;;;13.60;99.90;;;;;;5102785;28;20351;-43
2023/07/05 08:31:46;;;;;;;;;;;13.50;99.90;;;;;;5107384;28;19912;-41
2023/07/05 08:34:12;;;;;;;;;;;13.50;99.90;;;;;;5100518;28;19919;-42
2023/07/05 08:36:38;;;;;;;;;;;13.40;99.90;;;;;;5107395;28;19912;-42
2023/07/05 08:39:05;;;;;;;;;;;13.40;99.90;;;;;;5112802;28;19927;-41
2023/07/05 08:41:34;;;;;;;;;;;13.40;99.90;;;;;;5111166;28;20032;-41
2023/07/05 08:44:06;;;;;;;;;;;13.40;99.90;;;;;;5112026;28;19916;-42
2023/07/05 08:46:32;;;;;;;;;;;13.40;99.90;;;;;;5106656;28;19923;-41
2023/07/05 08:49:03;;;;;;;;;;;13.40;99.90;;;;;;5091709;28;19909;-43
2023/07/05 08:51:29;;;;;;;;;;;13.40;99.90;;;;;;5100623;28;19998;-45
2023/07/05 08:53:57;;;;;;;;;;;13.30;99.90;;;;;;5100423;28;19919;-44
2023/07/05 08:56:25;;;;;;;;;;;13.30;99.90;;;;;;5087943;28;19915;-43
2023/07/05 08:58:56;;;;;;;;;;;13.20;99.90;;;;;;5091427;28;19908;-46
2023/07/05 09:01:26;;;;;;;;;;;13.10;99.90;;;;;;5098235;28;19916;-42
2023/07/05 09:03:52;;;;;;;;;;;13.20;99.90;;;;;;5114064;28;19915;-44
2023/07/05 09:06:22;;;;;;;;;;;13.10;99.90;;;;;;5116253;28;19919;-42
2023/07/05 09:09:04;;;;;;;;;;;13.10;99.90;;;;;;5101143;28;19916;-41
2023/07/05 09:11:34;;;;;;;;;;;13.10;99.90;;;;;;5100920;28;19917;-44
2023/07/05 09:14:08;;;;;;;;;;;13.10;99.90;;;;;;5096292;28;19908;-43
2023/07/05 09:16:39;;;;;;;;;;;13.10;99.90;;;;;;5115484;28;19988;-42
2023/07/05 09:19:10;;;;;;;;;;;13.10;99.90;;;;;;5116619;28;19919;-40
2023/07/05 09:21:40;;;;;;;;;;;13.10;99.90;;;;;;5115818;28;19912;-42
2023/07/05 09:24:19;;;;;;;;;;;13.00;99.90;;;;;;5115340;28;19908;-43
2023/07/05 09:26:48;;;;;;;;;;;13.00;99.90;;;;;;5116276;28;19915;-43
2023/07/05 09:29:18;;;;;;;;;;;13.10;99.90;;;;;;5108714;28;20035;-40
2023/07/05 09:31:44;;;;;;;;;;;13.10;99.90;;;;;;5113594;28;20688;-41
2023/07/05 09:34:26;;;;;;;;;;;13.10;99.90;;;;;;5108678;28;19915;-41
2023/07/05 09:36:52;;;;;;;;;;;13.10;99.90;;;;;;5115136;28;20288;-41
2023/07/05 09:39:36;;;;;;;;;;;13.10;99.90;;;;;;5115307;28;19931;-46
2023/07/05 09:42:03;;;;;;;;;;;13.00;99.90;;;;;;5113835;28;19963;-44
2023/07/05 09:44:29;;;;;;;;;;;12.90;99.90;;;;;;5107801;28;19919;-41
2023/07/05 09:46:54;;;;;;;;;;;12.90;99.90;;;;;;5112765;28;19916;-39
2023/07/05 09:49:20;;;;;;;;;;;12.90;99.90;;;;;;5096306;28;19915;-41
2023/07/05 09:51:46;;;;;;;;;;;12.90;99.90;;;;;;5114891;28;20408;-42
2023/07/05 09:54:20;;;;;;;;;;;12.80;99.90;;;;;;5112545;28;19966;-45
2023/07/05 09:57:00;;;;;;;;;;;12.80;99.90;;;;;;5108055;28;19967;-39
2023/07/05 09:59:25;;;;;;;;;;;12.80;99.90;;;;;;5097208;28;19912;-43
2023/07/05 10:01:53;;;;;;;;;;;12.80;99.90;;;;;;5094778;28;19927;-42
2023/07/05 10:04:23;;;;;;;;;;;12.80;99.90;;;;;;5095372;28;19908;-42
2023/07/05 10:06:50;;;;;;;;;;;12.80;99.90;;;;;;5106344;28;19918;-39
2023/07/05 10:09:23;;;;;;;;;;;12.90;99.90;;;;;;5115301;28;20385;-43
2023/07/05 10:11:53;;;;;;;;;;;12.90;99.90;;;;;;5114362;28;19919;-41
2023/07/05 10:14:20;;;;;;;;;;;12.90;99.90;;;;;;5114680;28;20346;-42
2023/07/05 10:16:46;;;;;;;;;;;12.90;99.90;;;;;;5115250;28;19965;-40
2023/07/05 10:19:22;;;;;;;;;;;12.90;99.90;;;;;;5114819;28;20416;-41
2023/07/05 10:21:48;;;;;;;;;;;13.00;99.90;;;;;;5114337;28;19947;-41
2023/07/05 10:24:15;;;;;;;;;;;13.00;99.90;;;;;;5114914;28;20364;-40
2023/07/05 10:26:41;;;;;;;;;;;13.00;99.90;;;;;;5113984;28;20023;-42
2023/07/05 10:29:10;;;;;;;;;;;13.00;99.90;;;;;;5103806;28;20010;-40
2023/07/05 10:31:36;;;;;;;;;;;13.00;99.90;;;;;;5106969;28;19916;-39
2023/07/05 10:34:07;;;;;;;;;;;12.90;99.90;;;;;;5096689;28;19912;-41
2023/07/05 10:36:33;;;;;;;;;;;13.00;99.90;;;;;;5109493;28;19916;-42
2023/07/05 10:38:58;;;;;;;;;;;13.00;99.90;;;;;;5111463;28;19988;-42
2023/07/05 10:41:31;;;;;;;;;;;13.00;99.90;;;;;;5109310;28;19988;-39
2023/07/05 10:44:15;;;;;;;;;;;13.00;99.90;;;;;;5104740;28;20445;-40
2023/07/05 10:46:40;;;;;;;;;;;13.00;99.90;;;;;;5104022;28;19938;-40
2023/07/05 10:49:07;;;;;;;;;;;13.00;99.90;;;;;;5093348;28;20316;-41
2023/07/05 10:51:35;;;;;;;;;;;13.00;99.90;;;;;;5103959;28;19912;-40
2023/07/05 10:54:08;;;;;;;;;;;13.00;99.90;;;;;;5108906;28;19908;-40
2023/07/05 10:56:34;;;;;;;;;;;13.00;99.90;;;;;;5102020;28;20282;-40
2023/07/05 10:59:05;;;;;;;;;;;13.00;99.90;;;;;;5106679;28;19909;-38
2023/07/05 11:01:43;;;;;;;;;;;13.00;99.90;;;;;;5096562;28;20359;-41
2023/07/05 11:04:18;;;;;;;;;;;13.10;99.90;;;;;;5113701;28;20011;-40
2023/07/05 11:06:45;;;;;;;;;;;13.20;99.90;;;;;;5105149;28;19912;-41
2023/07/05 11:09:11;;;;;;;;;;;13.20;99.90;;;;;;5109767;28;19907;-40
2023/07/05 11:11:40;;;;;;;;;;;13.40;99.90;;;;;;5113900;28;20422;-41
2023/07/05 11:14:12;;;;;;;;;;;13.60;99.90;;;;;;5113331;28;19922;-39
2023/07/05 11:16:39;;;;;;;;;;;13.70;99.90;;;;;;5104134;28;19943;-39
2023/07/05 11:19:10;;;;;;;;;;;13.70;99.90;;;;;;5094544;28;19970;-39
2023/07/05 11:21:46;;;;;;;;;;;13.70;99.90;;;;;;5097128;28;19922;-41
2023/07/05 11:24:12;;;;;;;;;;;13.80;99.90;;;;;;5103184;28;20002;-41
2023/07/05 11:26:47;;;;;;;;;;;13.80;99.90;;;;;;5099811;28;20370;-42
2023/07/05 11:29:25;;;;;;;;;;;13.80;99.90;;;;;;5100838;28;20432;-40
2023/07/05 11:31:53;;;;;;;;;;;13.70;99.90;;;;;;5095605;28;19914;-40
2023/07/05 11:34:21;;;;;;;;;;;13.60;99.90;;;;;;5095888;28;20487;-43
2023/07/05 11:36:48;;;;;;;;;;;13.30;99.90;;;;;;5095243;28;19977;-39
2023/07/05 11:39:32;;;;;;;;;;;13.10;99.90;;;;;;5102257;28;20434;-39
2023/07/05 11:42:19;;;;;;;;;;;12.90;99.90;;;;;;5108386;28;20397;-41
2023/07/05 11:45:03;;;;;;;;;;;12.90;99.90;;;;;;5100426;28;19912;-40
2023/07/05 11:47:31;;;;;;;;;;;12.80;99.90;;;;;;5106737;28;20304;-39
2023/07/05 11:49:57;;;;;;;;;;;12.70;99.90;;;;;;5103813;28;19990;-39
2023/07/05 11:52:30;;;;;;;;;;;12.70;99.90;;;;;;5113982;28;20380;-38
2023/07/05 11:55:10;;;;;;;;;;;12.60;99.90;;;;;;5114225;28;20339;-38
2023/07/05 11:57:38;;;;;;;;;;;12.60;99.90;;;;;;5112077;28;20415;-39
2023/07/05 12:00:14;;;;;;;;;;;12.50;99.90;;;;;;5110548;28;19975;-39
2023/07/05 12:02:48;;;;;;;;;;;12.50;99.90;;;;;;5102291;28;19920;-41
2023/07/05 12:05:17;;;;;;;;;;;12.50;99.90;;;;;;5092911;28;19911;-39
2023/07/05 12:07:43;;;;;;;;;;;12.40;99.90;;;;;;5096945;28;19912;-41
2023/07/05 12:10:15;;;;;;;;;;;12.50;99.90;;;;;;5091158;28;19920;-39
2023/07/05 12:12:41;;;;;;;;;;;12.50;99.90;;;;;;5090180;28;20010;-39
2023/07/05 12:15:09;;;;;;;;;;;12.50;99.90;;;;;;5092845;28;20003;-39
2023/07/05 12:17:35;;;;;;;;;;;12.60;99.90;;;;;;5110769;28;20357;-40
2023/07/05 12:20:05;;;;;;;;;;;12.50;99.90;;;;;;5104760;28;20339;-40
2023/07/05 12:22:32;;;;;;;;;;;12.60;99.90;;;;;;5110459;28;20002;-40
2023/07/05 12:24:58;;;;;;;;;;;12.70;99.90;;;;;;5103335;28;20188;-39
2023/07/05 12:27:25;;;;;;;;;;;12.70;99.90;;;;;;5109486;28;19915;-39
2023/07/05 12:29:56;;;;;;;;;;;12.80;99.90;;;;;;5112452;28;19907;-39
2023/07/05 12:32:24;;;;;;;;;;;12.80;99.90;;;;;;5111730;28;20341;-39
2023/07/05 12:35:05;;;;;;;;;;;12.80;99.90;;;;;;5111827;28;19962;-40
2023/07/05 12:37:32;;;;;;;;;;;12.90;99.90;;;;;;5111473;28;19915;-40
2023/07/05 12:40:32;;;;;;;;;;;12.90;99.90;;;;;;5110388;28;19924;-40
2023/07/05 12:43:03;;;;;;;;;;;12.90;99.90;;;;;;5063359;28;19950;-42
2023/07/05 12:45:39;;;;;;;;;;;13.00;99.90;;;;;;5098384;28;19908;-40
2023/07/05 12:48:15;;;;;;;;;;;13.10;99.90;;;;;;5106681;28;20011;-40
2023/07/05 12:50:41;;;;;;;;;;;13.10;99.90;;;;;;5097195;28;20017;-40
2023/07/05 12:53:12;;;;;;;;;;;13.10;99.90;;;;;;5096872;28;19915;-40
2023/07/05 12:55:39;;;;;;;;;;;13.20;99.90;;;;;;5097097;28;20390;-39
2023/07/05 12:58:06;;;;;;;;;;;13.30;99.90;;;;;;5115092;28;19912;-38
2023/07/05 13:00:31;;;;;;;;;;;13.30;99.90;;;;;;5116175;28;19954;-40
2023/07/05 13:03:00;;;;;;;;;;;13.20;99.90;;;;;;5105790;28;19924;-40
2023/07/05 13:05:26;;;;;;;;;;;13.20;99.90;;;;;;5103882;28;19923;-39
2023/07/05 13:07:53;;;;;;;;;;;13.30;99.90;;;;;;5103554;28;20308;-40
2023/07/05 13:10:19;;;;;;;;;;;13.30;99.90;;;;;;5095816;28;19908;-41
2023/07/05 13:12:55;;;;;;;;;;;13.30;99.90;;;;;;5096056;28;19990;-40
2023/07/05 13:15:31;;;;;;;;;;;13.40;99.90;;;;;;5104982;28;19919;-39
2023/07/05 13:18:12;;;;;;;;;;;13.50;99.90;;;;;;5115698;28;19916;-39
2023/07/05 13:20:37;;;;;;;;;;;13.50;99.90;;;;;;5113424;28;19912;-40
2023/07/05 13:23:05;;;;;;;;;;;13.40;99.90;;;;;;5115041;28;19916;-39
2023/07/05 13:25:32;;;;;;;;;;;13.50;99.90;;;;;;5113374;28;19919;-39
2023/07/05 13:27:58;;;;;;;;;;;13.50;99.90;;;;;;5106645;28;20006;-39
2023/07/05 13:30:25;;;;;;;;;;;13.50;99.90;;;;;;5096301;28;19955;-38
2023/07/05 13:32:55;;;;;;;;;;;13.50;99.90;;;;;;5105147;28;20305;-39
2023/07/05 13:35:21;;;;;;;;;;;13.50;99.90;;;;;;5095362;28;19931;-38
2023/07/05 13:37:46;;;;;;;;;;;13.50;99.90;;;;;;5094642;28;19991;-39
2023/07/05 13:40:23;;;;;;;;;;;13.50;99.90;;;;;;5094585;28;20390;-38
2023/07/05 13:42:49;;;;;;;;;;;13.60;99.90;;;;;;5103346;28;19920;-38
2023/07/05 13:45:17;;;;;;;;;;;13.60;99.90;;;;;;5099713;28;19968;-39
2023/07/05 13:47:43;;;;;;;;;;;13.60;99.90;;;;;;5104479;28;20024;-38
2023/07/05 13:50:09;;;;;;;;;;;13.50;99.90;;;;;;5102455;28;20403;-39
2023/07/05 13:52:34;;;;;;;;;;;13.50;99.90;;;;;;5099959;28;19912;-38
2023/07/05 13:55:00;;;;;;;;;;;13.50;99.90;;;;;;5108589;28;20263;-40
2023/07/05 13:57:26;;;;;;;;;;;13.50;99.90;;;;;;5113520;28;19968;-40
2023/07/05 13:59:52;;;;;;;;;;;13.40;99.90;;;;;;5114602;28;19919;-41
2023/07/05 14:02:28;;;;;;;;;;;13.40;99.90;;;;;;5109381;28;19930;-41
2023/07/05 14:04:54;;;;;;;;;;;13.40;99.90;;;;;;5111476;28;19964;-42
2023/07/05 14:07:21;;;;;;;;;;;13.40;99.90;;;;;;5097757;28;19916;-41
2023/07/05 14:09:48;;;;;;;;;;;13.40;99.90;;;;;;5110816;28;19918;-42
2023/07/05 14:12:14;;;;;;;;;;;13.40;99.90;;;;;;5111156;28;19912;-42
2023/07/05 14:14:40;;;;;;;;;;;13.40;99.90;;;;;;5113450;28;20316;-41
2023/07/05 14:17:11;;;;;;;;;;;13.50;99.90;;;;;;5095564;28;19918;-40
2023/07/05 14:19:36;;;;;;;;;;;13.60;99.90;;;;;;5103251;28;19912;-42